Huvudsida
METAR-TAF:

METAR-TAF

Flygplatser :

Skaraborgs flygflottilj

Såtenäs, Sverige

latitud: 58-26N, longitud: 012-42E, höjd: 54 m

Aktuellt väderrapport

Denna rapport gjordes för 40 minuter sedan, klockan 05:50 UTC
Vind 2 kt från ost/nordost
Temperatur -2°C
Fuktighet 100%
Tryck 997 hPa
Sikt 10 km eller mer
Spridda moln på en höjd av 2300 ft
Spridda moln på en höjd av 16000 ft

METAR: ESIB 250550Z 06002KT 9999 SCT023 SCT160 M02/M02 Q0997

Tid: 07:30 (06:30 UTC)

Väderprognos

Denna rapport gjordes för 40 minuter sedan, klockan 05:50 UTC
Prognos gäller från 25 kl. 06 UTC till 25 kl. 15 UTC
Vind 6 kt från nord/nordost
Sikt 10 km eller mer
Brutna moln på en höjd av 2000 ft
Sannolikhet 30%
från 25 kl. 06 UTC till 25 kl. 15 UTC
Sikt: 3000 m
Brutna moln på en höjd av 1200 ft
Brutna moln på en höjd av 2000 ft, Högtornande cumulus.
lätta snöbyar

TAF: ESIB 250550Z 2506/2515 03006KT 9999 BKN020 PROB30 2506/2515 3000 -SHSN BKN012 BKN020TCU RMK MIL

Aktuella väderrapporter och prognoser från 4000 flygplatser (METAR- och TAF-rapporter).

De tillgängliga stationerna syns som gula och röda prickar på kartan.

För musen över prickarna för att se namnen på stationerna.

Klicka sedan för att få väderrapporter och prognoser.

För att ändra kartan: Klicka på de gröna knapparna med ett svart kors på för att zooma in; den gröna knappen med ett streck på för att zooma ut; eller på de gröna pilarna för angränsande kartor.


METAR-TAF: